Time;durP1;ratioP1;P1;durP2;ratioP2;P2;SDS_P1;SDS_P2;PMS_P1;PMS_P2;Temp;Humidity;BMP_temperature;BMP_pressure;BME280_temperature;BME280_humidity;BME280_pressure;Samples;Min_cycle;Max_cycle;Signal;HPM_P1;HPM_P2
2021/06/18 00:02:59;;;;;;;;;;;21.30;83.90;;;20.13;59.76;95470.78;10390263;28;2179;-78
2021/06/18 00:08:01;;;;;;;;;;;21.20;84.60;;;20.15;60.16;95468.47;10408553;28;2259;-79
2021/06/18 00:13:04;;;;;;;;;;;21.20;85.40;;;20.04;60.51;95464.63;10439814;28;2098;-80
2021/06/18 00:18:07;;;;;;;;;;;21.10;85.50;;;19.87;61.60;95469.19;10439730;28;2133;-79
2021/06/18 00:23:09;;;;;;;;;;;21.00;86.50;;;19.81;61.72;95465.06;10432325;28;2126;-79
2021/06/18 00:28:13;;;;;;;;;;;20.90;86.90;;;19.71;61.75;95463.56;10381335;28;2042;-77
2021/06/18 00:33:15;;;;;;;;;;;20.80;87.20;;;19.63;61.85;95456.31;10413420;28;2123;-79
2021/06/18 00:38:18;;;;;;;;;;;20.70;87.20;;;19.55;62.12;95448.22;10401343;28;2098;-80
2021/06/18 00:43:21;;;;;;;;;;;20.70;87.40;;;19.49;62.27;95449.56;10407781;28;2175;-80
2021/06/18 00:48:24;;;;;;;;;;;20.60;87.90;;;19.39;63.95;95451.56;10408835;28;2187;-79
2021/06/18 00:53:26;;;;;;;;;;;20.50;89.10;;;19.50;63.06;95451.16;10426947;28;2056;-79
2021/06/18 00:58:29;;;;;;;;;;;20.50;89.20;;;19.41;63.54;95448.53;10410438;28;2052;-79
2021/06/18 01:03:31;;;;;;;;;;;20.50;89.40;;;19.36;64.44;95438.63;10409329;28;2231;-78
2021/06/18 01:08:34;;;;;;;;;;;20.40;90.00;;;19.35;63.51;95445.22;10412775;28;2096;-79
2021/06/18 01:13:37;;;;;;;;;;;20.40;89.70;;;19.31;63.57;95448.94;10402599;28;2059;-76
2021/06/18 01:18:40;;;;;;;;;;;20.40;89.60;;;19.21;63.68;95449.38;10410919;28;2114;-79
2021/06/18 01:23:42;;;;;;;;;;;20.30;89.70;;;19.12;64.10;95444.00;10394937;28;2149;-78
2021/06/18 01:28:45;;;;;;;;;;;20.20;89.80;;;19.06;64.37;95437.19;10407212;28;2169;-77
2021/06/18 01:33:48;;;;;;;;;;;20.20;90.30;;;18.97;64.46;95434.56;10403208;28;2035;-78
2021/06/18 01:38:51;;;;;;;;;;;20.10;90.60;;;18.94;65.06;95431.69;10424585;28;2108;-78
2021/06/18 01:43:54;;;;;;;;;;;20.00;91.20;;;18.95;65.67;95430.56;10432314;28;2270;-80
2021/06/18 01:48:57;;;;;;;;;;;20.00;91.60;;;18.79;65.85;95423.00;10419749;28;2107;-80
2021/06/18 01:54:00;;;;;;;;;;;21.00;92.40;;;18.76;67.22;95417.44;10388356;28;2081;-78
2021/06/18 01:59:02;;;;;;;;;;;19.80;93.50;;;18.86;66.22;95420.53;10410491;28;2111;-78
2021/06/18 02:04:05;;;;;;;;;;;19.70;93.70;;;18.80;66.18;95418.38;10402928;28;2331;-78
2021/06/18 02:09:08;;;;;;;;;;;19.70;93.40;;;18.57;66.91;95415.16;10403608;28;2123;-78
2021/06/18 02:14:10;;;;;;;;;;;19.70;93.50;;;18.41;67.97;95416.91;10388917;28;2103;-78
2021/06/18 02:19:13;;;;;;;;;;;19.60;93.80;;;18.31;68.21;95424.31;10407364;28;2123;-78
2021/06/18 02:24:16;;;;;;;;;;;19.40;94.80;;;18.25;69.54;95425.63;10400394;28;2107;-78
2021/06/18 02:29:19;;;;;;;;;;;19.30;95.70;;;18.21;68.20;95432.88;10402895;28;2091;-78
2021/06/18 02:34:21;;;;;;;;;;;19.30;94.90;;;18.06;68.93;95438.88;10392959;28;2151;-78
2021/06/18 02:39:24;;;;;;;;;;;19.20;95.20;;;18.17;69.81;95440.09;10397230;28;2205;-79
2021/06/18 02:44:27;;;;;;;;;;;19.20;96.50;;;18.03;69.10;95450.44;10409657;28;2199;-80
2021/06/18 02:49:29;;;;;;;;;;;19.20;95.70;;;17.94;69.61;95449.66;10397992;28;2276;-79
2021/06/18 02:54:32;;;;;;;;;;;19.00;95.90;;;17.89;70.34;95455.31;10407595;28;2140;-79
2021/06/18 02:59:35;;;;;;;;;;;19.00;96.70;;;17.86;69.96;95447.78;10398528;28;2109;-80
2021/06/18 03:04:38;;;;;;;;;;;19.00;96.60;;;17.80;69.59;95453.41;10400305;28;2155;-80
2021/06/18 03:09:41;;;;;;;;;;;18.90;96.70;;;17.81;70.14;95460.47;10416008;28;2126;-79
2021/06/18 03:14:44;;;;;;;;;;;18.90;97.00;;;17.75;70.33;95460.94;10396927;28;2286;-80
2021/06/18 03:19:46;;;;;;;;;;;18.80;97.10;;;17.89;69.47;95463.47;10410904;28;2110;-78
2021/06/18 03:24:49;;;;;;;;;;;18.80;97.20;;;18.07;69.27;95459.53;10414957;28;2070;-78
2021/06/18 03:29:52;;;;;;;;;;;19.00;97.30;;;18.28;68.31;95468.53;10406602;28;2108;-78
2021/06/18 03:34:54;;;;;;;;;;;19.10;96.90;;;18.28;68.26;95473.97;10407287;28;2134;-78
2021/06/18 03:39:57;;;;;;;;;;;19.20;96.80;;;18.47;67.29;95483.63;10402572;28;2203;-77
2021/06/18 03:45:00;;;;;;;;;;;19.30;96.30;;;18.72;66.64;95476.41;10392204;28;2246;-78
2021/06/18 03:50:03;;;;;;;;;;;19.40;95.90;;;19.06;64.66;95486.22;10408632;28;2200;-77
2021/06/18 03:55:06;;;;;;;;;;;19.60;94.80;;;19.39;63.53;95483.47;10413796;28;2161;-78
2021/06/18 04:00:08;;;;;;;;;;;19.90;94.20;;;19.91;62.03;95488.38;10404143;28;2119;-78
2021/06/18 04:05:14;;;;;;;;;;;20.30;93.50;;;20.34;60.03;95479.63;10413787;28;2078;-79
2021/06/18 04:10:17;;;;;;;;;;;20.70;91.80;;;20.73;58.95;95480.03;10386908;28;2227;-78
2021/06/18 04:15:21;;;;;;;;;;;21.00;90.80;;;20.92;58.27;95477.47;10400097;28;2177;-78
2021/06/18 04:20:44;;;;;;;;;;;21.40;89.60;;;21.20;57.51;95479.44;10398280;28;2115;-80
2021/06/18 04:26:07;;;;;;;;;;;21.70;88.70;;;21.40;56.38;95480.38;10408573;28;2080;-79
2021/06/18 04:31:09;;;;;;;;;;;22.00;87.60;;;21.57;55.54;95480.06;10408902;28;2048;-80
2021/06/18 04:36:12;;;;;;;;;;;22.10;86.80;;;21.80;54.09;95483.00;10407732;28;2147;-78
2021/06/18 04:41:16;;;;;;;;;;;22.30;85.50;;;21.94;53.19;95477.88;10403995;28;2116;-77
2021/06/18 04:46:19;;;;;;;;;;;22.50;84.30;;;22.30;51.79;95484.22;10408718;28;2055;-78
2021/06/18 04:51:22;;;;;;;;;;;22.70;83.50;;;22.55;51.49;95491.06;10394753;28;2104;-78
2021/06/18 04:56:24;;;;;;;;;;;23.00;83.00;;;22.58;50.91;95484.06;10402003;28;2083;-79
2021/06/18 05:01:27;;;;;;;;;;;23.10;81.90;;;22.51;51.15;95487.44;10406656;28;2267;-80
2021/06/18 05:06:30;;;;;;;;;;;23.30;81.40;;;22.72;50.78;95494.59;10409185;28;2192;-79
2021/06/18 05:11:35;;;;;;;;;;;23.30;81.20;;;22.86;50.13;95495.72;10401092;28;2137;-80
2021/06/18 05:16:39;;;;;;;;;;;23.50;80.50;;;23.30;48.60;95497.38;10403314;28;2228;-79
2021/06/18 05:21:42;;;;;;;;;;;23.60;80.00;;;23.55;48.21;95503.34;10426184;28;2080;-79
2021/06/18 05:26:44;;;;;;;;;;;23.90;79.80;;;23.50;49.41;95520.09;10446782;28;2139;-78
2021/06/18 05:31:47;;;;;;;;;;;24.00;80.00;;;23.83;48.44;95525.06;10416390;28;2192;-79
2021/06/18 05:36:50;;;;;;;;;;;24.20;79.60;;;23.39;49.32;95519.88;10425191;28;2075;-78
2021/06/18 05:41:53;;;;;;;;;;;24.20;79.30;;;24.11;46.40;95519.25;10402093;28;2273;-78
2021/06/18 05:46:56;;;;;;;;;;;24.30;77.90;;;24.39;46.17;95525.25;10392028;28;2174;-77
2021/06/18 05:51:59;;;;;;;;;;;24.60;77.60;;;24.33;46.91;95523.16;10408240;28;2041;-83
2021/06/18 05:57:01;;;;;;;;;;;24.80;77.80;;;24.55;46.92;95516.84;10395762;28;2072;-81
2021/06/18 06:02:04;;;;;;;;;;;25.10;77.30;;;25.06;45.68;95516.44;10406867;28;2282;-82
2021/06/18 06:07:07;;;;;;;;;;;25.30;76.70;;;25.06;45.17;95519.19;10422610;28;2142;-84
2021/06/18 06:12:09;;;;;;;;;;;25.40;75.90;;;24.92;45.52;95518.97;10419650;28;2145;-81
2021/06/18 06:17:12;;;;;;;;;;;25.50;75.60;;;24.88;46.33;95524.44;10404903;28;1993;-84
2021/06/18 06:22:16;;;;;;;;;;;25.40;76.40;;;24.86;46.40;95515.75;10418126;28;2036;-85
2021/06/18 06:27:19;;;;;;;;;;;25.30;76.90;;;25.15;46.21;95516.97;10418561;28;2094;-84
2021/06/18 06:32:22;;;;;;;;;;;25.50;76.60;;;25.80;44.01;95513.00;10407691;28;2253;-82
2021/06/18 06:37:25;;;;;;;;;;;25.70;75.80;;;25.36;45.41;95516.41;10429198;28;2245;-86
2021/06/18 06:42:27;;;;;;;;;;;25.90;75.20;;;25.41;45.15;95513.34;10427229;28;2049;-84
2021/06/18 06:47:30;;;;;;;;;;;25.90;74.80;;;25.75;44.14;95513.34;10424696;28;2127;-83
2021/06/18 06:52:33;;;;;;;;;;;26.20;74.40;;;26.15;42.65;95507.06;10429293;28;2051;-85
2021/06/18 06:57:36;;;;;;;;;;;26.40;73.80;;;26.40;41.30;95508.09;10424847;28;1837;-83
2021/06/18 07:02:39;;;;;;;;;;;26.60;72.10;;;26.88;41.00;95505.25;10443358;28;2123;-83
2021/06/18 07:07:42;;;;;;;;;;;26.90;71.80;;;26.84;41.42;95515.44;10420222;28;2243;-85
2021/06/18 07:12:45;;;;;;;;;;;27.10;72.20;;;26.68;42.23;95523.25;10430932;28;2516;-83
2021/06/18 07:17:52;;;;;;;;;;;27.20;72.00;;;26.84;40.59;95525.69;10438809;28;2092;-85
2021/06/18 07:22:57;;;;;;;;;;;27.20;71.00;;;27.26;40.04;95525.19;10416323;28;2175;-84
2021/06/18 07:28:00;;;;;;;;;;;27.60;70.80;;;27.11;40.34;95529.06;10431413;28;2174;-82
2021/06/18 07:33:03;;;;;;;;;;;27.70;69.50;;;27.67;39.06;95519.41;10426749;28;2071;-83
2021/06/18 07:38:06;;;;;;;;;;;28.00;69.50;;;27.47;38.67;95518.94;10411601;28;2134;-84
2021/06/18 07:43:08;;;;;;;;;;;28.10;68.50;;;27.78;38.36;95523.00;10422036;28;2256;-84
2021/06/18 07:48:11;;;;;;;;;;;28.10;68.60;;;28.14;38.39;95526.66;10425089;28;2134;-85
2021/06/18 07:53:15;;;;;;;;;;;28.30;68.50;;;27.53;38.42;95524.88;10404735;28;2132;-85
2021/06/18 07:58:18;;;;;;;;;;;28.60;66.80;;;28.24;38.15;95527.81;10406699;28;2161;-85
2021/06/18 08:03:20;;;;;;;;;;;28.60;68.00;;;28.53;38.81;95534.97;10431487;28;2038;-82
2021/06/18 08:08:23;;;;;;;;;;;28.80;68.30;;;28.03;38.23;95528.59;10422240;28;2187;-85
2021/06/18 08:13:26;;;;;;;;;;;28.80;66.80;;;28.76;37.63;95528.25;10426440;28;2001;-84
2021/06/18 08:18:29;;;;;;;;;;;29.00;67.80;;;29.21;36.38;95523.84;10399780;28;2022;-86
2021/06/18 08:23:32;;;;;;;;;;;29.30;66.80;;;29.48;35.52;95521.34;10402640;28;1966;-85
2021/06/18 08:28:34;;;;;;;;;;;29.60;65.70;;;29.08;36.95;95522.69;10419851;28;1881;-82
2021/06/18 08:33:38;;;;;;;;;;;29.60;66.20;;;29.49;36.57;95522.16;10419172;28;2082;-84
2021/06/18 08:38:43;;;;;;;;;;;29.70;66.20;;;29.58;36.67;95519.75;10406851;28;2113;-83
2021/06/18 08:43:46;;;;;;;;;;;30.00;66.20;;;29.76;36.42;95525.22;10422449;28;2063;-84
2021/06/18 08:48:49;;;;;;;;;;;30.20;66.20;;;29.13;37.41;95521.47;10432316;28;2091;-85
2021/06/18 08:53:52;;;;;;;;;;;30.00;65.90;;;28.96;36.39;95520.34;10421002;28;2159;-86
2021/06/18 08:58:55;;;;;;;;;;;29.80;64.20;;;29.63;35.13;95524.09;10408460;28;1938;-84
2021/06/18 09:03:57;;;;;;;;;;;29.90;63.80;;;29.74;35.54;95531.16;10430378;28;2194;-83
2021/06/18 09:09:00;;;;;;;;;;;30.10;65.10;;;29.65;35.82;95530.81;10434152;28;2026;-86
2021/06/18 09:14:03;;;;;;;;;;;30.10;64.70;;;29.91;35.23;95532.25;10403336;28;2090;-83
2021/06/18 09:19:06;;;;;;;;;;;30.20;64.30;;;29.55;36.68;95537.97;10408526;28;2077;-86
2021/06/18 09:24:08;;;;;;;;;;;30.20;65.30;;;29.07;37.58;95537.69;10430594;28;1937;-84
2021/06/18 09:29:11;;;;;;;;;;;30.00;65.90;;;29.27;36.75;95535.28;10427264;28;2282;-83
2021/06/18 09:34:14;;;;;;;;;;;29.90;64.70;;;29.64;36.44;95528.44;10418345;28;1049;-83
2021/06/18 09:39:17;;;;;;;;;;;30.80;65.40;;;29.66;36.46;95517.75;10393318;28;1285;-84
2021/06/18 09:44:21;;;;;;;;;;;30.30;64.80;;;29.56;35.56;95517.38;10416404;28;1910;-85
2021/06/18 09:49:23;;;;;;;;;;;30.30;63.90;;;29.97;34.62;95519.56;10418691;28;2138;-85
2021/06/18 09:54:31;;;;;;;;;;;30.50;63.50;;;30.20;34.30;95523.78;10440320;28;2048;-83
2021/06/18 09:59:34;;;;;;;;;;;30.60;63.10;;;30.10;34.59;95522.69;10418488;28;2192;-83
2021/06/18 10:04:37;;;;;;;;;;;30.90;62.20;;;29.88;34.60;95517.22;10412079;28;2159;-84
2021/06/18 10:09:39;;;;;;;;;;;30.70;62.20;;;29.75;32.71;95520.88;10439483;28;2177;-84
2021/06/18 10:14:43;;;;;;;;;;;30.50;60.30;;;29.96;32.69;95509.66;10446485;28;2060;-84
2021/06/18 10:19:46;;;;;;;;;;;30.60;59.90;;;29.68;32.68;95524.47;10466543;28;1244;-86
2021/06/18 10:24:48;;;;;;;;;;;30.50;60.20;;;30.12;31.90;95511.97;10420766;28;1902;-84
2021/06/18 10:29:51;;;;;;;;;;;30.70;60.00;;;30.55;31.29;95512.44;10427840;28;1528;-83
2021/06/18 10:34:54;;;;;;;;;;;30.90;58.80;;;31.00;31.58;95508.88;10446581;28;2086;-83
2021/06/18 10:39:57;;;;;;;;;;;31.40;59.60;;;31.91;28.36;95489.53;10419661;28;2203;-81
2021/06/18 10:45:00;;;;;;;;;;;32.60;56.80;;;31.82;28.04;95497.59;10434810;28;2134;-86
2021/06/18 10:50:02;;;;;;;;;;;33.50;54.40;;;32.46;27.69;95490.31;10402200;28;2185;-86
2021/06/18 10:55:07;;;;;;;;;;;34.20;54.10;;;33.20;24.84;95490.97;10420204;28;2079;-86
2021/06/18 11:00:10;;;;;;;;;;;35.00;51.30;;;32.70;25.81;95486.31;10397547;28;2109;-83
2021/06/18 11:05:14;;;;;;;;;;;35.50;50.00;;;33.38;24.70;95484.25;10428092;28;2175;-83
2021/06/18 11:10:17;;;;;;;;;;;35.60;49.10;;;33.86;23.14;95486.44;10414203;28;2197;-86
2021/06/18 11:15:20;;;;;;;;;;;36.10;47.90;;;34.45;23.26;95465.97;10385958;28;2147;-86
2021/06/18 11:20:23;;;;;;;;;;;36.70;48.10;;;34.70;21.64;95476.50;10417917;28;2390;-84
2021/06/18 11:25:26;;;;;;;;;;;36.90;46.30;;;34.30;23.02;95468.31;10427239;28;2162;-83
2021/06/18 11:30:29;;;;;;;;;;;37.00;46.80;;;33.78;24.64;95465.50;10416072;28;2211;-85
2021/06/18 11:35:31;;;;;;;;;;;36.00;48.40;;;33.19;24.65;95461.53;10417384;28;2064;-83
2021/06/18 11:40:34;;;;;;;;;;;35.00;48.60;;;32.53;25.05;95465.13;10421122;28;1401;-81
2021/06/18 11:45:37;;;;;;;;;;;34.00;49.10;;;32.24;24.34;95460.00;10423277;28;2118;-85
2021/06/18 11:50:42;;;;;;;;;;;33.40;48.40;;;32.09;24.79;95461.47;10430586;28;2153;-82
2021/06/18 11:55:45;;;;;;;;;;;33.10;49.40;;;31.61;25.72;95454.19;10417087;28;2183;-82
2021/06/18 12:00:47;;;;;;;;;;;32.80;49.30;;;32.04;26.29;95447.25;10424584;28;2083;-86
2021/06/18 12:05:50;;;;;;;;;;;32.90;50.50;;;31.36;24.92;95448.94;10406837;28;2009;-86
2021/06/18 12:10:53;;;;;;;;;;;32.70;48.30;;;31.51;24.91;95438.47;10427658;28;2145;-83
2021/06/18 12:15:56;;;;;;;;;;;32.50;49.00;;;31.58;24.78;95446.69;10404259;28;2037;-85
2021/06/18 12:20:59;;;;;;;;;;;32.50;49.20;;;32.01;23.70;95446.09;10423046;28;2329;-81
2021/06/18 12:26:01;;;;;;;;;;;32.80;48.00;;;32.24;23.75;95443.31;10436043;28;1883;-84
2021/06/18 12:31:04;;;;;;;;;;;33.00;48.80;;;32.15;23.34;95447.88;10423647;28;1972;-82
2021/06/18 12:36:07;;;;;;;;;;;33.20;47.70;;;32.17;23.61;95437.09;10414322;28;1874;-84
2021/06/18 12:41:10;;;;;;;;;;;33.10;48.00;;;32.15;23.89;95434.75;10421383;28;2021;-84
2021/06/18 12:46:12;;;;;;;;;;;33.00;48.20;;;32.48;22.96;95441.38;10429801;28;1889;-83
2021/06/18 12:51:15;;;;;;;;;;;33.30;47.50;;;32.62;22.87;95434.75;10420814;28;1989;-83
2021/06/18 12:56:18;;;;;;;;;;;33.30;47.60;;;32.70;22.81;95433.44;10430687;28;1897;-83
2021/06/18 13:01:24;;;;;;;;;;;33.60;47.10;;;32.84;23.39;95429.59;10429458;28;2119;-82
2021/06/18 13:06:37;;;;;;;;;;;33.60;47.20;;;32.78;23.34;95422.94;10423945;28;2117;-83
2021/06/18 13:11:40;;;;;;;;;;;33.60;47.30;;;32.76;23.20;95423.34;10423364;28;2123;-85
2021/06/18 13:16:42;;;;;;;;;;;33.70;47.20;;;32.43;23.34;95421.59;10435093;28;2126;-84
2021/06/18 13:21:45;;;;;;;;;;;33.60;46.70;;;32.41;23.28;95424.03;10444749;28;2349;-84
2021/06/18 13:26:48;;;;;;;;;;;33.40;47.00;;;32.51;22.91;95420.25;10417051;28;2095;-81
2021/06/18 13:31:51;;;;;;;;;;;33.40;46.80;;;32.66;22.70;95418.00;10424733;28;2078;-85
2021/06/18 13:36:56;;;;;;;;;;;33.50;46.50;;;32.27;24.26;95419.47;10421918;28;2129;-83
2021/06/18 13:41:58;;;;;;;;;;;33.50;47.20;;;32.37;23.30;95414.94;10429469;28;2043;-83
2021/06/18 13:47:01;;;;;;;;;;;33.30;47.00;;;32.84;23.02;95409.34;10415210;28;2115;-84
2021/06/18 13:52:04;;;;;;;;;;;33.50;46.50;;;32.67;22.83;95419.56;10416576;28;2139;-82
2021/06/18 13:57:07;;;;;;;;;;;33.70;46.40;;;32.45;23.39;95413.63;10416939;28;2053;-81
2021/06/18 14:02:10;;;;;;;;;;;33.50;46.50;;;32.35;23.30;95417.38;10421353;28;2097;-85
2021/06/18 14:07:13;;;;;;;;;;;33.40;46.30;;;33.11;22.04;95415.56;10435843;28;2247;-84
2021/06/18 14:12:16;;;;;;;;;;;33.70;46.00;;;33.38;21.75;95400.69;10414189;28;2072;-84
2021/06/18 14:17:19;;;;;;;;;;;34.10;45.60;;;32.53;21.72;95409.50;10417933;28;2127;-81
2021/06/18 14:22:22;;;;;;;;;;;33.80;44.60;;;33.11;21.12;95393.28;10420565;28;2195;-81
2021/06/18 14:27:25;;;;;;;;;;;33.70;44.50;;;33.03;21.31;95403.78;10405182;28;2349;-82
2021/06/18 14:32:27;;;;;;;;;;;33.90;44.40;;;32.51;20.97;95406.34;10402731;28;2124;-82
2021/06/18 14:37:30;;;;;;;;;;;33.70;43.50;;;32.59;22.28;95396.66;10413458;28;2168;-82
2021/06/18 14:42:37;;;;;;;;;;;33.40;45.30;;;32.86;21.62;95390.19;10424149;28;2147;-82
2021/06/18 14:47:40;;;;;;;;;;;33.60;44.80;;;32.68;22.19;95387.75;10410152;28;2106;-84
2021/06/18 14:52:43;;;;;;;;;;;33.70;44.70;;;32.70;21.07;95379.75;10421423;28;2135;-82
2021/06/18 14:57:45;;;;;;;;;;;33.80;43.50;;;32.88;20.36;95379.44;10419730;28;2072;-82
2021/06/18 15:02:48;;;;;;;;;;;33.70;43.50;;;32.24;21.17;95382.16;10402336;28;2073;-84
2021/06/18 15:07:51;;;;;;;;;;;33.50;43.40;;;32.55;20.63;95379.25;10421369;28;1989;-82
2021/06/18 15:12:54;;;;;;;;;;;33.40;43.50;;;32.74;20.73;95374.91;10432386;28;2039;-87
2021/06/18 15:17:57;;;;;;;;;;;33.50;43.60;;;33.21;19.92;95372.78;10441966;28;2157;-84
2021/06/18 15:23:00;;;;;;;;;;;33.90;42.80;;;32.82;19.72;95371.56;10413553;28;2031;-82
2021/06/18 15:28:03;;;;;;;;;;;33.90;41.70;;;32.91;19.60;95367.47;10430209;28;1989;-82
2021/06/18 15:33:05;;;;;;;;;;;33.80;42.10;;;33.21;18.93;95374.78;10425190;28;2090;-83
2021/06/18 15:38:08;;;;;;;;;;;34.00;42.00;;;33.47;19.22;95376.63;10436527;28;2269;-82
2021/06/18 15:43:11;;;;;;;;;;;34.30;42.00;;;33.63;19.54;95361.94;10439516;28;2003;-84
2021/06/18 15:48:14;;;;;;;;;;;34.50;42.20;;;33.20;19.81;95362.84;10442075;28;2323;-83
2021/06/18 15:53:17;;;;;;;;;;;34.40;41.80;;;33.33;18.92;95363.75;10411191;28;1886;-85
2021/06/18 15:58:20;;;;;;;;;;;34.20;41.50;;;33.35;18.57;95375.25;10427227;28;2005;-84
2021/06/18 16:03:23;;;;;;;;;;;34.00;41.50;;;33.17;18.78;95363.72;10419373;28;1953;-85
2021/06/18 16:08:27;;;;;;;;;;;34.10;41.30;;;32.89;19.03;95375.44;10428857;28;2212;-86
2021/06/18 16:13:30;;;;;;;;;;;34.00;41.30;;;32.78;19.02;95376.41;10447017;28;1882;-82
2021/06/18 16:18:33;;;;;;;;;;;33.90;41.00;;;32.51;19.45;95372.94;10428263;28;1743;-83
2021/06/18 16:23:36;;;;;;;;;;;33.50;41.20;;;32.21;19.45;95380.22;10458412;28;2119;-80
2021/06/18 16:28:39;;;;;;;;;;;33.30;41.10;;;31.79;22.30;95394.81;10433417;28;2135;-80
2021/06/18 16:33:42;;;;;;;;;;;33.00;43.70;;;31.43;24.01;95389.78;10441245;28;2107;-82
2021/06/18 16:38:44;;;;;;;;;;;32.60;45.80;;;31.21;24.76;95384.47;10421006;28;2288;-82
2021/06/18 16:43:47;;;;;;;;;;;32.20;46.80;;;31.22;22.30;95386.03;10412566;28;2203;-81
2021/06/18 16:48:50;;;;;;;;;;;32.10;45.00;;;31.30;22.47;95386.78;10419689;28;2188;-81
2021/06/18 16:53:52;;;;;;;;;;;32.10;44.80;;;31.05;21.58;95378.75;10412761;28;2151;-78
2021/06/18 16:58:55;;;;;;;;;;;31.90;43.30;;;30.92;21.37;95386.00;10418674;28;2179;-82
2021/06/18 17:03:58;;;;;;;;;;;31.80;43.40;;;30.56;24.47;95382.84;10409500;28;2182;-82
2021/06/18 17:09:01;;;;;;;;;;;31.60;46.30;;;30.32;24.95;95370.81;10397369;28;2087;-84
2021/06/18 17:14:04;;;;;;;;;;;31.40;47.00;;;30.14;25.36;95374.53;10422630;28;1857;-80
2021/06/18 17:19:07;;;;;;;;;;;31.10;47.40;;;30.05;26.18;95378.97;10427804;28;2184;-81
2021/06/18 17:24:09;;;;;;;;;;;30.90;48.10;;;29.89;26.86;95385.78;10412627;28;2215;-82
2021/06/18 17:29:12;;;;;;;;;;;30.80;48.90;;;29.86;27.22;95397.72;10409336;28;2074;-82
2021/06/18 17:34:15;;;;;;;;;;;30.60;49.50;;;29.82;26.75;95396.16;10413721;28;2048;-82
2021/06/18 17:39:18;;;;;;;;;;;30.60;49.30;;;29.71;27.24;95387.13;10427262;28;2257;-81
2021/06/18 17:44:20;;;;;;;;;;;30.50;49.50;;;29.62;26.83;95387.59;10425472;28;2083;-83
2021/06/18 17:49:23;;;;;;;;;;;30.40;49.40;;;29.47;27.46;95386.88;10427346;28;1993;-81
2021/06/18 17:54:29;;;;;;;;;;;30.30;49.80;;;29.44;27.38;95387.66;10444056;28;1877;-82
2021/06/18 17:59:33;;;;;;;;;;;30.30;50.10;;;29.40;27.95;95388.91;10422876;28;1902;-82
2021/06/18 18:04:36;;;;;;;;;;;30.20;50.60;;;29.26;28.36;95387.78;10436375;28;2044;-81
2021/06/18 18:09:40;;;;;;;;;;;30.10;50.90;;;29.24;27.92;95392.16;10426308;28;1954;-82
2021/06/18 18:14:42;;;;;;;;;;;30.00;50.80;;;29.10;28.02;95395.78;10425766;28;2071;-80
2021/06/18 18:19:45;;;;;;;;;;;29.90;50.10;;;29.12;28.04;95392.59;10425726;28;2042;-82
2021/06/18 18:24:48;;;;;;;;;;;29.90;50.20;;;29.01;28.05;95400.94;10429299;28;2004;-83
2021/06/18 18:29:50;;;;;;;;;;;29.80;50.20;;;28.94;28.09;95414.81;10424988;28;1918;-81
2021/06/18 18:34:53;;;;;;;;;;;29.70;50.30;;;28.87;28.54;95415.59;10428750;28;2114;-81
2021/06/18 18:39:56;;;;;;;;;;;29.70;50.70;;;28.75;29.06;95411.28;10415256;28;2218;-82
2021/06/18 18:44:58;;;;;;;;;;;29.60;51.40;;;28.63;29.69;95424.75;10409387;28;2127;-82
2021/06/18 18:50:02;;;;;;;;;;;29.50;51.90;;;28.47;29.70;95425.19;10401225;28;2205;-83
2021/06/18 18:55:05;;;;;;;;;;;29.30;52.10;;;28.28;30.10;95431.91;10425374;28;2203;-83
2021/06/18 19:00:07;;;;;;;;;;;29.20;52.60;;;28.04;30.95;95440.97;10424990;28;2130;-82
2021/06/18 19:05:10;;;;;;;;;;;29.00;53.20;;;27.87;30.93;95445.31;10421830;28;2401;-83
2021/06/18 19:10:13;;;;;;;;;;;28.80;53.20;;;27.73;31.08;95443.31;10425540;28;1913;-82
2021/06/18 19:15:15;;;;;;;;;;;28.70;53.30;;;27.46;31.77;95440.88;10420649;28;2154;-82
2021/06/18 19:20:18;;;;;;;;;;;28.50;53.60;;;27.22;32.24;95444.34;10426756;28;2139;-81
2021/06/18 19:25:22;;;;;;;;;;;28.30;54.30;;;27.10;32.28;95461.22;10420870;28;2317;-82
2021/06/18 19:30:25;;;;;;;;;;;28.10;54.50;;;26.86;32.90;95459.94;10427904;28;2246;-81
2021/06/18 19:35:28;;;;;;;;;;;27.90;54.50;;;26.66;33.42;95467.69;10408843;28;2103;-82
2021/06/18 19:40:31;;;;;;;;;;;27.00;55.10;;;26.48;34.00;95472.31;10419408;28;1876;-83
2021/06/18 19:45:34;;;;;;;;;;;28.30;56.20;;;26.34;34.57;95471.00;10425454;28;1967;-80
2021/06/18 19:50:37;;;;;;;;;;;27.50;56.20;;;26.16;35.35;95475.59;10432334;28;2131;-81
2021/06/18 19:55:43;;;;;;;;;;;27.30;56.80;;;26.00;35.66;95486.84;10446148;28;2146;-80
2021/06/18 20:00:46;;;;;;;;;;;27.30;57.50;;;25.92;35.94;95487.94;10448836;28;2192;-81
2021/06/18 20:05:48;;;;;;;;;;;27.00;57.90;;;25.78;36.46;95496.88;10425507;28;2091;-81
2021/06/18 20:10:51;;;;;;;;;;;26.90;57.90;;;25.59;37.19;95489.56;10427928;28;2082;-81
2021/06/18 20:15:54;;;;;;;;;;;26.70;58.60;;;25.45;38.65;95494.09;10420640;28;2111;-83
2021/06/18 20:20:57;;;;;;;;;;;26.60;60.00;;;25.27;38.93;95491.16;10426520;28;2034;-81
2021/06/18 20:25:59;;;;;;;;;;;26.40;60.40;;;25.22;39.25;95489.53;10421748;28;2171;-81
2021/06/18 20:31:02;;;;;;;;;;;26.30;61.20;;;25.06;39.56;95491.69;10410713;28;2040;-83
2021/06/18 20:36:05;;;;;;;;;;;26.20;61.40;;;25.00;39.70;95493.97;10424095;28;2187;-82
2021/06/18 20:41:08;;;;;;;;;;;26.10;62.00;;;24.87;40.34;95491.78;10408735;28;2079;-82
2021/06/18 20:46:11;;;;;;;;;;;26.00;62.40;;;24.83;40.93;95493.72;10407391;28;2105;-83
2021/06/18 20:51:14;;;;;;;;;;;25.90;62.50;;;24.74;40.45;95497.50;10420587;28;2083;-81
2021/06/18 20:56:34;;;;;;;;;;;25.80;62.70;;;24.63;41.18;95495.81;10419367;28;2207;-79
2021/06/18 21:01:36;;;;;;;;;;;25.70;63.10;;;24.56;41.65;95487.41;10407142;28;2095;-82
2021/06/18 21:06:40;;;;;;;;;;;25.70;63.80;;;24.49;42.00;95494.44;10404409;28;2218;-79
2021/06/18 21:11:42;;;;;;;;;;;25.60;64.20;;;24.49;43.54;95486.19;10404739;28;2143;-78
2021/06/18 21:16:45;;;;;;;;;;;25.50;66.00;;;24.39;42.75;95483.28;10389853;28;2090;-77
2021/06/18 21:21:48;;;;;;;;;;;25.40;65.30;;;24.36;43.93;95486.72;10383953;28;2105;-79
2021/06/18 21:26:51;;;;;;;;;;;25.30;66.20;;;24.26;43.29;95479.91;10407144;28;2264;-79
2021/06/18 21:31:54;;;;;;;;;;;25.30;65.90;;;24.20;43.92;95479.41;10416953;28;2146;-79
2021/06/18 21:36:56;;;;;;;;;;;25.20;66.70;;;24.06;44.83;95468.22;10405225;28;2364;-79
2021/06/18 21:41:59;;;;;;;;;;;25.10;67.40;;;24.04;45.82;95467.75;10410373;28;2099;-80
2021/06/18 21:47:05;;;;;;;;;;;25.10;68.40;;;24.06;45.46;95472.91;10394266;28;2320;-78
2021/06/18 21:52:08;;;;;;;;;;;25.10;68.40;;;23.95;45.52;95483.72;10408140;28;2173;-79
2021/06/18 21:57:11;;;;;;;;;;;25.00;68.50;;;23.91;45.69;95489.13;10408554;28;2130;-79
2021/06/18 22:02:13;;;;;;;;;;;24.90;68.80;;;23.79;46.24;95499.50;10407813;28;2072;-79
2021/06/18 22:07:16;;;;;;;;;;;24.80;69.10;;;23.75;46.39;95498.66;10416934;28;2217;-78
2021/06/18 22:12:19;;;;;;;;;;;24.70;69.80;;;23.71;46.39;95510.34;10410996;28;2191;-79
2021/06/18 22:17:22;;;;;;;;;;;24.70;69.90;;;23.69;46.75;95512.66;10411641;28;2200;-80
2021/06/18 22:22:24;;;;;;;;;;;24.70;70.30;;;23.62;46.89;95515.28;10397229;28;2140;-80
2021/06/18 22:27:27;;;;;;;;;;;24.60;70.30;;;23.58;47.46;95524.56;10411151;28;2072;-78
2021/06/18 22:32:29;;;;;;;;;;;24.60;70.90;;;23.56;47.98;95544.13;10391031;28;2094;-77
2021/06/18 22:37:32;;;;;;;;;;;24.50;71.70;;;23.38;49.23;95543.00;10409919;28;2107;-80
2021/06/18 22:42:35;;;;;;;;;;;24.40;72.60;;;23.23;50.15;95554.84;10416484;28;2138;-80
2021/06/18 22:47:38;;;;;;;;;;;24.30;73.50;;;23.13;50.07;95554.22;10407957;28;2211;-78
2021/06/18 22:52:41;;;;;;;;;;;24.20;73.60;;;23.16;49.81;95560.97;10408210;28;2189;-77
2021/06/18 22:57:43;;;;;;;;;;;24.10;73.70;;;23.00;50.49;95555.50;10411467;28;2126;-79
2021/06/18 23:02:46;;;;;;;;;;;24.00;73.90;;;22.87;50.92;95546.63;10399470;28;2130;-78
2021/06/18 23:07:49;;;;;;;;;;;23.90;74.40;;;22.71;51.55;95542.28;10418216;28;2148;-78
2021/06/18 23:12:52;;;;;;;;;;;23.80;75.10;;;22.64;51.65;95540.97;10421541;28;2076;-78